Time;durP1;ratioP1;P1;durP2;ratioP2;P2;SDS_P1;SDS_P2;PMS_P1;PMS_P2;Temp;Humidity;BMP_temperature;BMP_pressure;BME280_temperature;BME280_humidity;BME280_pressure;Samples;Min_cycle;Max_cycle;Signal;HPM_P1;HPM_P2
2023/01/25 00:01:02;;;;;;;34.13;26.98;;;;;;;0.50;100.00;103825.25;10421666;28;20038;-67
2023/01/25 00:06:03;;;;;;;51.70;33.95;;;;;;;0.45;100.00;103824.59;10420175;28;20033;-67
2023/01/25 00:11:03;;;;;;;47.83;30.70;;;;;;;0.39;100.00;103822.16;10420004;28;20065;-67
2023/01/25 00:16:04;;;;;;;34.42;24.73;;;;;;;0.33;100.00;103822.38;10418752;28;20042;-67
2023/01/25 00:21:15;;;;;;;43.78;29.17;;;;;;;0.30;100.00;103804.72;10418484;28;20370;-67
2023/01/25 00:26:15;;;;;;;45.08;31.67;;;;;;;0.31;100.00;103795.78;10418235;28;20037;-67
2023/01/25 00:31:40;;;;;;;47.10;27.70;;;;;;;0.36;100.00;103790.28;10417480;28;20025;-67
2023/01/25 00:36:41;;;;;;;49.22;29.88;;;;;;;0.39;100.00;103787.50;10387406;28;20408;-67
2023/01/25 00:41:42;;;;;;;46.42;30.58;;;;;;;0.29;100.00;103787.00;10417345;28;20116;-68
2023/01/25 00:46:42;;;;;;;47.33;29.23;;;;;;;0.31;100.00;103786.91;10417179;28;20044;-67
2023/01/25 00:51:42;;;;;;;48.10;32.35;;;;;;;0.29;100.00;103779.00;10417860;28;20040;-67
2023/01/25 00:56:43;;;;;;;46.83;31.02;;;;;;;0.32;100.00;103783.31;10416406;28;20061;-67
2023/01/25 01:01:44;;;;;;;49.30;33.33;;;;;;;0.22;100.00;103781.03;10417962;28;20436;-67
2023/01/25 01:06:44;;;;;;;53.20;33.55;;;;;;;0.21;100.00;103781.94;10417211;28;20033;-67
2023/01/25 01:11:45;;;;;;;42.92;30.10;;;;;;;0.16;100.00;103772.38;10415818;28;20516;-67
2023/01/25 01:16:45;;;;;;;49.90;33.28;;;;;;;0.22;100.00;103772.13;10416950;28;20113;-68
2023/01/25 01:21:45;;;;;;;48.78;29.90;;;;;;;0.33;100.00;103769.94;10416044;28;20079;-67
2023/01/25 01:26:46;;;;;;;50.65;31.63;;;;;;;0.43;100.00;103773.97;10415805;28;20038;-67
2023/01/25 01:31:50;;;;;;;45.47;29.55;;;;;;;0.50;100.00;103761.25;10417098;28;20057;-67
2023/01/25 01:36:50;;;;;;;44.38;30.58;;;;;;;0.54;100.00;103765.53;10415592;28;20036;-67
2023/01/25 01:41:51;;;;;;;45.95;29.38;;;;;;;0.56;100.00;103761.03;10416545;28;20033;-67
2023/01/25 01:46:55;;;;;;;43.17;31.00;;;;;;;0.54;100.00;103765.53;10416014;28;20034;-67
2023/01/25 01:52:09;;;;;;;51.72;33.25;;;;;;;0.50;100.00;103776.41;10414375;28;20104;-67
2023/01/25 01:57:17;;;;;;;46.28;32.40;;;;;;;0.55;100.00;103769.09;10399844;28;20029;-67
2023/01/25 02:02:18;;;;;;;50.95;31.10;;;;;;;0.58;100.00;103768.97;10402187;28;20041;-67
2023/01/25 02:07:21;;;;;;;49.67;32.70;;;;;;;0.54;100.00;103762.00;10416331;28;20488;-68
2023/01/25 02:12:22;;;;;;;45.83;31.85;;;;;;;0.52;100.00;103754.09;10415435;28;20140;-68
2023/01/25 02:17:27;;;;;;;49.60;30.92;;;;;;;0.55;100.00;103756.63;10397494;28;20025;-67
2023/01/25 02:22:37;;;;;;;41.55;29.20;;;;;;;0.54;100.00;103757.53;10414096;28;20046;-67
2023/01/25 02:27:42;;;;;;;47.75;30.52;;;;;;;0.56;100.00;103749.50;10413785;28;20041;-68
2023/01/25 02:32:43;;;;;;;45.43;31.57;;;;;;;0.53;100.00;103746.94;10415386;28;20469;-67
2023/01/25 02:37:43;;;;;;;48.83;30.95;;;;;;;0.53;100.00;103734.47;10415616;28;20048;-67
2023/01/25 02:42:44;;;;;;;47.05;32.10;;;;;;;0.40;100.00;103735.91;10414356;28;20456;-67
2023/01/25 02:47:44;;;;;;;44.25;32.30;;;;;;;0.31;100.00;103723.81;10414735;28;20033;-67
2023/01/25 02:52:44;;;;;;;58.97;35.20;;;;;;;0.26;100.00;103724.94;10415141;28;20168;-67
2023/01/25 02:57:45;;;;;;;43.28;27.17;;;;;;;0.23;100.00;103712.59;10414860;28;20048;-67
2023/01/25 03:02:45;;;;;;;48.75;35.33;;;;;;;0.19;100.00;103711.88;10414581;28;20473;-68
2023/01/25 03:07:46;;;;;;;50.20;35.00;;;;;;;0.23;100.00;103709.94;10416268;28;20115;-67
2023/01/25 03:12:46;;;;;;;57.38;36.05;;;;;;;0.15;100.00;103702.22;10420427;28;20088;-67
2023/01/25 03:17:47;;;;;;;49.97;30.45;;;;;;;0.14;100.00;103711.16;10403918;28;20076;-68
2023/01/25 03:22:47;;;;;;;48.08;33.15;;;;;;;0.16;100.00;103697.75;10422495;28;20037;-67
2023/01/25 03:27:47;;;;;;;48.10;31.40;;;;;;;0.27;100.00;103700.03;10420424;28;20137;-67
2023/01/25 03:32:49;;;;;;;48.53;32.10;;;;;;;0.30;100.00;103690.09;10420312;28;20095;-67
2023/01/25 03:37:49;;;;;;;51.38;34.53;;;;;;;0.34;100.00;103696.16;10421342;28;20120;-68
2023/01/25 03:42:52;;;;;;;50.65;34.70;;;;;;;0.29;100.00;103676.81;10419451;28;20537;-67
2023/01/25 03:47:52;;;;;;;55.10;32.85;;;;;;;0.28;100.00;103681.28;10420597;28;20037;-67
2023/01/25 03:53:00;;;;;;;53.08;34.55;;;;;;;0.29;100.00;103680.38;10420046;28;20502;-67
2023/01/25 03:58:00;;;;;;;54.20;34.78;;;;;;;0.29;100.00;103683.03;10420631;28;20033;-67
2023/01/25 04:03:01;;;;;;;51.47;34.38;;;;;;;0.21;100.00;103678.00;10419780;28;20042;-67
2023/01/25 04:08:01;;;;;;;45.75;30.55;;;;;;;0.14;100.00;103673.84;10420380;28;20038;-67
2023/01/25 04:13:01;;;;;;;56.50;37.65;;;;;;;0.10;100.00;103666.06;10422935;28;20057;-67
2023/01/25 04:18:02;;;;;;;53.63;33.65;;;;;;;0.12;100.00;103662.38;10422578;28;20041;-67
2023/01/25 04:23:02;;;;;;;51.67;33.88;;;;;;;0.11;100.00;103662.47;10418971;28;20478;-68
2023/01/25 04:28:03;;;;;;;54.10;35.72;;;;;;;0.02;100.00;103653.03;10419733;28;20481;-67
2023/01/25 04:33:04;;;;;;;51.88;32.35;;;;;;;-0.01;100.00;103658.47;10418667;28;20029;-68
2023/01/25 04:38:04;;;;;;;53.95;34.38;;;;;;;-0.11;100.00;103651.78;10418613;28;20098;-67
2023/01/25 04:43:05;;;;;;;69.47;40.45;;;;;;;-0.11;100.00;103651.78;10418755;28;20040;-67
2023/01/25 04:48:09;;;;;;;64.35;39.00;;;;;;;-0.14;100.00;103652.75;10416883;28;20029;-67
2023/01/25 04:53:10;;;;;;;61.90;38.78;;;;;;;-0.10;100.00;103638.38;10417049;28;20034;-67
2023/01/25 04:58:10;;;;;;;70.88;40.13;;;;;;;-0.07;100.00;103635.59;10417912;28;20112;-67
2023/01/25 05:03:11;;;;;;;58.28;36.40;;;;;;;-0.10;100.00;103632.19;10417503;28;20029;-67
2023/01/25 05:08:11;;;;;;;67.68;41.63;;;;;;;-0.07;100.00;103634.75;10417680;28;20037;-67
2023/01/25 05:13:12;;;;;;;73.38;39.85;;;;;;;-0.01;100.00;103637.16;10415948;28;20485;-67
2023/01/25 05:18:12;;;;;;;58.92;37.80;;;;;;;0.03;100.00;103635.25;10417066;28;20038;-67
2023/01/25 05:23:13;;;;;;;46.47;29.20;;;;;;;-0.07;100.00;103640.94;10417263;28;20087;-67
2023/01/25 05:28:13;;;;;;;66.75;40.53;;;;;;;-0.08;100.00;103627.69;10417019;28;20417;-67
2023/01/25 05:33:13;;;;;;;67.80;39.90;;;;;;;-0.17;100.00;103633.38;10415913;28;20063;-67
2023/01/25 05:38:14;;;;;;;62.22;41.35;;;;;;;-0.27;100.00;103624.88;10415523;28;20500;-67
2023/01/25 05:43:14;;;;;;;67.88;41.75;;;;;;;-0.29;100.00;103611.66;10415866;28;20073;-68
2023/01/25 05:48:15;;;;;;;62.72;40.97;;;;;;;-0.27;100.00;103614.22;10415286;28;20120;-67
2023/01/25 05:53:15;;;;;;;60.95;37.85;;;;;;;-0.20;100.00;103613.06;10348399;28;20065;-67
2023/01/25 05:58:15;;;;;;;58.72;35.65;;;;;;;-0.11;100.00;103617.16;10414672;28;20030;-67
2023/01/25 06:03:16;;;;;;;72.85;38.55;;;;;;;-0.09;100.00;103633.97;10415737;28;20061;-67
2023/01/25 06:08:16;;;;;;;61.53;35.78;;;;;;;-0.04;100.00;103629.28;10415786;28;20080;-67
2023/01/25 06:13:17;;;;;;;78.18;42.05;;;;;;;0.01;100.00;103627.31;10414196;28;20560;-68
2023/01/25 06:18:17;;;;;;;70.25;39.03;;;;;;;0.06;100.00;103625.31;10397615;28;20038;-67
2023/01/25 06:23:18;;;;;;;65.78;39.50;;;;;;;0.09;100.00;103621.69;10417045;28;20129;-67
2023/01/25 06:28:18;;;;;;;68.13;43.20;;;;;;;0.13;100.00;103616.19;10417016;28;20374;-67
2023/01/25 06:33:18;;;;;;;80.63;45.33;;;;;;;0.14;100.00;103619.72;10416498;28;20049;-67
2023/01/25 06:38:19;;;;;;;70.90;45.17;;;;;;;0.18;100.00;103622.16;10414995;28;20069;-67
2023/01/25 06:43:19;;;;;;;75.15;43.28;;;;;;;0.11;100.00;103614.50;10417395;28;20065;-67
2023/01/25 06:48:20;;;;;;;76.50;43.63;;;;;;;0.09;100.00;103613.69;10422624;28;20121;-67
2023/01/25 06:53:20;;;;;;;67.43;41.47;;;;;;;0.13;100.00;103605.53;10422554;28;20069;-67
2023/01/25 06:58:21;;;;;;;86.68;46.30;;;;;;;0.20;100.00;103608.78;10422719;28;20033;-67
2023/01/25 07:03:21;;;;;;;72.72;41.10;;;;;;;0.23;100.00;103604.19;10422493;28;20061;-67
2023/01/25 07:08:22;;;;;;;71.65;40.63;;;;;;;0.29;100.00;103611.09;10422311;28;20117;-67
2023/01/25 07:13:23;;;;;;;71.18;44.20;;;;;;;0.28;100.00;103604.00;10403582;28;20054;-67
2023/01/25 07:18:24;;;;;;;71.35;43.28;;;;;;;0.33;100.00;103607.34;10419826;28;20057;-67
2023/01/25 07:23:26;;;;;;;69.22;43.63;;;;;;;0.36;100.00;103606.38;10421023;28;20428;-67
2023/01/25 07:28:27;;;;;;;79.35;46.30;;;;;;;0.32;100.00;103602.06;10421512;28;20044;-67
2023/01/25 07:33:27;;;;;;;74.28;42.95;;;;;;;0.28;100.00;103596.00;10419689;28;20033;-67
2023/01/25 07:38:27;;;;;;;76.57;45.78;;;;;;;0.19;100.00;103586.63;10419851;28;20057;-67
2023/01/25 07:43:28;;;;;;;70.90;45.55;;;;;;;0.18;100.00;103579.53;10419159;28;20063;-67
2023/01/25 07:48:28;;;;;;;68.25;40.40;;;;;;;0.25;100.00;103584.59;10418529;28;20037;-67
2023/01/25 07:53:29;;;;;;;76.50;47.67;;;;;;;0.28;100.00;103574.69;10418756;28;20033;-67
2023/01/25 07:58:29;;;;;;;75.22;45.50;;;;;;;0.13;100.00;103575.34;10420165;28;20061;-67
2023/01/25 08:03:29;;;;;;;79.50;41.50;;;;;;;0.19;100.00;103569.72;10420028;28;20038;-67
2023/01/25 08:08:33;;;;;;;67.38;37.70;;;;;;;0.21;100.00;103562.56;10419211;28;20124;-67
2023/01/25 08:13:33;;;;;;;78.30;45.20;;;;;;;0.27;100.00;103566.78;10417953;28;20058;-68
2023/01/25 08:18:34;;;;;;;72.63;40.45;;;;;;;0.34;100.00;103570.91;10417628;28;20037;-67
2023/01/25 08:23:34;;;;;;;74.15;43.53;;;;;;;0.36;100.00;103559.25;10419250;28;20065;-67
2023/01/25 08:28:35;;;;;;;76.07;42.58;;;;;;;0.38;100.00;103557.41;10418999;28;20109;-67
2023/01/25 08:33:35;;;;;;;80.60;44.72;;;;;;;0.46;100.00;103565.03;10385845;28;20060;-67
2023/01/25 08:38:36;;;;;;;63.20;37.63;;;;;;;0.52;100.00;103558.59;10418207;28;20037;-67
2023/01/25 08:43:36;;;;;;;85.38;42.97;;;;;;;0.48;100.00;103552.53;10420659;28;20033;-67
2023/01/25 08:48:37;;;;;;;78.03;47.13;;;;;;;0.48;100.00;103568.53;10417095;28;20459;-67
2023/01/25 08:53:37;;;;;;;83.70;48.25;;;;;;;0.32;100.00;103559.41;10416881;28;20025;-67
2023/01/25 08:58:39;;;;;;;62.92;40.25;;;;;;;0.29;100.00;103560.44;10417287;28;20524;-67
2023/01/25 09:03:41;;;;;;;63.33;36.70;;;;;;;0.43;100.00;103549.19;10416463;28;20458;-67
2023/01/25 09:08:42;;;;;;;67.03;40.03;;;;;;;0.49;100.00;103551.59;10416440;28;20029;-67
2023/01/25 09:13:43;;;;;;;66.88;40.33;;;;;;;0.47;100.00;103550.78;10399040;28;20065;-67
2023/01/25 09:18:43;;;;;;;63.65;40.00;;;;;;;0.51;100.00;103541.72;10419644;28;20045;-67
2023/01/25 09:23:49;;;;;;;68.20;38.65;;;;;;;0.51;100.00;103544.41;10416828;28;20056;-67
2023/01/25 09:28:50;;;;;;;66.03;40.73;;;;;;;0.37;100.00;103533.44;10417115;28;20432;-67
2023/01/25 09:33:51;;;;;;;58.22;38.45;;;;;;;0.30;100.00;103524.00;10417053;28;20021;-67
2023/01/25 09:38:52;;;;;;;69.35;41.97;;;;;;;0.31;100.00;103518.59;10415147;28;20041;-67
2023/01/25 09:44:31;;;;;;;66.68;40.85;;;;;;;0.26;100.00;103519.75;10414831;28;20041;-67
2023/01/25 09:49:40;;;;;;;65.30;35.63;;;;;;;0.53;100.00;103507.84;10414008;28;20037;-67
2023/01/25 09:54:40;;;;;;;70.30;42.60;;;;;;;0.50;100.00;103502.66;10414803;28;20032;-67
2023/01/25 09:59:41;;;;;;;63.20;38.88;;;;;;;0.51;100.00;103498.19;10397785;28;20030;-67
2023/01/25 10:04:41;;;;;;;60.65;39.65;;;;;;;0.56;100.00;103486.38;10397667;28;20071;-67
2023/01/25 10:10:10;;;;;;;64.97;37.60;;;;;;;0.51;100.00;103482.19;10413706;28;20388;-67
2023/01/25 10:15:22;;;;;;;58.83;36.53;;;;;;;0.54;100.00;103468.72;10413931;28;20037;-67
2023/01/25 10:20:47;;;;;;;67.10;40.40;;;;;;;0.60;100.00;103465.78;10415184;28;20033;-67
2023/01/25 10:25:58;;;;;;;65.07;40.15;;;;;;;0.62;100.00;103466.59;10403054;28;20042;-67
2023/01/25 10:31:04;;;;;;;70.18;44.67;;;;;;;0.57;100.00;103448.13;10413672;28;20041;-67
2023/01/25 10:36:05;;;;;;;65.07;39.83;;;;;;;0.44;100.00;103444.28;10397339;28;20068;-67
2023/01/25 10:41:25;;;;;;;69.45;42.80;;;;;;;0.46;100.00;103447.75;10399264;28;20044;-67
2023/01/25 10:46:26;;;;;;;46.65;32.85;;;;;;;0.45;100.00;103438.91;10413156;28;20034;-67
2023/01/25 10:51:31;;;;;;;53.47;32.38;;;;;;;0.60;100.00;103437.31;10413274;28;20056;-67
2023/01/25 10:56:34;;;;;;;71.55;40.63;;;;;;;0.60;100.00;103417.78;10415236;28;20076;-67
2023/01/25 11:01:35;;;;;;;64.72;37.92;;;;;;;0.53;100.00;103392.34;10400476;28;20450;-67
2023/01/25 11:06:37;;;;;;;56.58;34.00;;;;;;;0.69;100.00;103390.69;10412483;28;20069;-67
2023/01/25 11:11:37;;;;;;;48.25;30.42;;;;;;;0.77;100.00;103385.03;10412423;28;20053;-67
2023/01/25 11:16:38;;;;;;;63.90;36.53;;;;;;;0.81;100.00;103382.13;10395644;28;20037;-67
2023/01/25 11:21:39;;;;;;;60.63;35.67;;;;;;;0.69;100.00;103369.38;10414005;28;20072;-67
2023/01/25 11:26:39;;;;;;;66.32;37.53;;;;;;;0.89;100.00;103357.72;10396755;28;20048;-67
2023/01/25 11:31:40;;;;;;;57.70;32.22;;;;;;;0.82;100.00;103341.16;10417344;28;20025;-67
2023/01/25 11:36:58;;;;;;;64.13;36.60;;;;;;;0.73;100.00;103330.94;10419785;28;20041;-67
2023/01/25 11:42:17;;;;;;;67.68;37.75;;;;;;;0.70;100.00;103317.75;10420537;28;20492;-67
2023/01/25 11:47:23;;;;;;;61.13;34.75;;;;;;;0.75;100.00;103317.53;10420450;28;20032;-67
2023/01/25 11:52:51;;;;;;;53.55;31.33;;;;;;;0.84;100.00;103301.09;10418899;28;20026;-67
2023/01/25 11:58:31;;;;;;;62.72;36.78;;;;;;;0.74;100.00;103284.69;10420447;28;20025;-67
2023/01/25 12:03:45;;;;;;;69.00;38.60;;;;;;;0.80;100.00;103254.16;10396876;28;20493;-67
2023/01/25 12:09:21;;;;;;;76.07;40.75;;;;;;;0.93;100.00;103242.81;10418041;28;20457;-67
2023/01/25 12:14:28;;;;;;;66.22;38.85;;;;;;;0.97;100.00;103237.34;10384001;28;20069;-67
2023/01/25 12:19:31;;;;;;;68.32;37.83;;;;;;;0.99;100.00;103214.09;10419534;28;20045;-67
2023/01/25 12:25:14;;;;;;;52.58;34.13;;;;;;;0.86;100.00;103197.84;10419443;28;20052;-67
2023/01/25 12:30:18;;;;;;;68.88;37.13;;;;;;;1.04;100.00;103196.91;10417254;28;20026;-68
2023/01/25 12:35:32;;;;;;;51.22;30.50;;;;;;;1.03;100.00;103189.84;10417484;28;20040;-67
2023/01/25 12:40:43;;;;;;;63.08;34.67;;;;;;;0.87;100.00;103181.78;10418617;28;20358;-68
2023/01/25 12:45:44;;;;;;;61.47;34.80;;;;;;;0.79;100.00;103172.44;10417993;28;20033;-67
2023/01/25 12:50:50;;;;;;;55.28;35.10;;;;;;;0.78;100.00;103178.72;10417961;28;20413;-68
2023/01/25 12:55:51;;;;;;;72.57;38.00;;;;;;;0.60;100.00;103165.34;10417211;28;20351;-67
2023/01/25 13:01:00;;;;;;;73.18;43.95;;;;;;;0.57;100.00;103154.84;10400441;28;20034;-67
2023/01/25 13:06:33;;;;;;;67.50;41.08;;;;;;;0.52;100.00;103140.91;10418045;28;20037;-67
2023/01/25 13:11:36;;;;;;;66.57;36.17;;;;;;;0.67;100.00;103140.13;10416937;28;20065;-68
2023/01/25 13:16:42;;;;;;;57.38;33.53;;;;;;;0.74;100.00;103134.47;10403039;28;20334;-67
2023/01/25 13:21:46;;;;;;;59.97;35.17;;;;;;;0.75;100.00;103130.88;10400717;28;20034;-67
2023/01/25 13:26:53;;;;;;;70.45;36.05;;;;;;;0.77;100.00;103119.19;10415826;28;20022;-67
2023/01/25 13:31:53;;;;;;;;;;;;;;;0.68;100.00;103107.19;10417450;28;20119;-67
2023/01/25 13:36:56;;;;;;;71.22;42.35;;;;;;;0.49;100.00;103100.19;10416636;28;19944;-68
2023/01/25 13:42:01;;;;;;;62.42;36.42;;;;;;;0.58;100.00;103102.41;10415507;28;20278;-67
2023/01/25 13:47:03;;;;;;;71.78;36.88;;;;;;;0.53;100.00;103088.44;10416237;28;20043;-67
2023/01/25 13:52:04;;;;;;;69.68;38.13;;;;;;;0.61;100.00;103080.91;10413682;28;20040;-67
2023/01/25 13:57:05;;;;;;;68.78;34.83;;;;;;;0.67;100.00;103076.13;10414596;28;20036;-67
2023/01/25 14:02:19;;;;;;;69.13;36.38;;;;;;;0.87;100.00;103077.75;10414263;28;20037;-67
2023/01/25 14:07:23;;;;;;;63.95;34.38;;;;;;;0.86;100.00;103080.47;10398256;28;20037;-67
2023/01/25 14:12:29;;;;;;;69.25;37.50;;;;;;;0.78;100.00;103085.38;10415351;28;20046;-67
2023/01/25 14:17:31;;;;;;;73.38;36.40;;;;;;;0.85;100.00;103070.75;10414406;28;20056;-67
2023/01/25 14:22:31;;;;;;;52.08;28.05;;;;;;;0.85;100.00;103068.09;10414046;28;20022;-68
2023/01/25 14:27:33;;;;;;;63.20;36.10;;;;;;;0.82;100.00;103068.25;10430195;28;20405;-67
2023/01/25 14:32:35;;;;;;;59.90;33.90;;;;;;;0.82;100.00;103041.59;10397366;28;20021;-68
2023/01/25 14:37:40;;;;;;;58.08;34.83;;;;;;;1.00;100.00;103050.41;10413531;28;20535;-67
2023/01/25 14:42:41;;;;;;;65.50;34.35;;;;;;;1.02;100.00;103056.50;10397527;28;20025;-67
2023/01/25 14:47:41;;;;;;;60.45;32.63;;;;;;;1.02;100.00;103049.41;10396755;28;20055;-67
2023/01/25 14:52:41;;;;;;;62.97;35.53;;;;;;;1.02;100.00;103038.72;10397078;28;20060;-67
2023/01/25 14:57:42;;;;;;;66.93;36.53;;;;;;;1.09;100.00;103034.78;10414541;28;20033;-67
2023/01/25 15:02:55;;;;;;;65.40;37.45;;;;;;;1.04;100.00;103041.31;10415001;28;20049;-67
2023/01/25 15:07:56;;;;;;;78.72;39.78;;;;;;;0.91;100.00;103025.09;10406206;28;20025;-67
2023/01/25 15:13:20;;;;;;;71.97;39.65;;;;;;;0.99;100.00;103016.66;10437692;28;20049;-68
2023/01/25 15:18:42;;;;;;;71.93;41.50;;;;;;;0.95;100.00;103002.63;10421889;28;20397;-67
2023/01/25 15:23:46;;;;;;;75.65;36.42;;;;;;;0.94;100.00;102992.91;10421718;28;20086;-67
2023/01/25 15:28:47;;;;;;;55.05;33.30;;;;;;;0.97;100.00;103003.41;10421596;28;20029;-67
2023/01/25 15:33:48;;;;;;;64.65;36.88;;;;;;;0.95;100.00;103010.63;10406924;28;20120;-67
2023/01/25 15:38:48;;;;;;;71.65;41.25;;;;;;;1.02;100.00;102995.16;10420260;28;20116;-67
2023/01/25 15:43:49;;;;;;;63.92;41.55;;;;;;;1.04;100.00;103009.28;10403053;28;20098;-67
2023/01/25 15:48:50;;;;;;;71.93;38.67;;;;;;;1.13;100.00;103014.13;10420203;28;20120;-67
2023/01/25 15:53:50;;;;;;;79.75;40.53;;;;;;;1.07;100.00;103014.47;10419506;28;20052;-67
2023/01/25 15:58:52;;;;;;;67.55;41.33;;;;;;;1.10;100.00;102996.47;10420152;28;20034;-67
2023/01/25 16:03:56;;;;;;;72.03;38.97;;;;;;;1.17;100.00;102992.50;10419117;28;20033;-67
2023/01/25 16:09:00;;;;;;;80.13;42.83;;;;;;;1.16;100.00;102987.28;10418848;28;20390;-67
2023/01/25 16:14:00;;;;;;;74.03;42.28;;;;;;;1.10;100.00;102980.47;10400929;28;20475;-67
2023/01/25 16:19:00;;;;;;;69.40;37.30;;;;;;;1.06;100.00;102962.03;10418615;28;20128;-67
2023/01/25 16:24:01;;;;;;;81.78;45.90;;;;;;;1.08;100.00;102954.81;10420144;28;20073;-68
2023/01/25 16:29:01;;;;;;;73.95;42.42;;;;;;;1.20;100.00;102953.25;10419475;28;20548;-67
2023/01/25 16:34:02;;;;;;;85.90;45.08;;;;;;;1.26;100.00;102944.91;10418988;28;20413;-67
2023/01/25 16:39:10;;;;;;;71.38;43.72;;;;;;;1.19;100.00;102923.06;10419055;28;20438;-67
2023/01/25 16:44:10;;;;;;;74.57;40.13;;;;;;;1.16;100.00;102913.41;10418317;28;20033;-67
2023/01/25 16:49:15;;;;;;;93.18;48.13;;;;;;;1.09;100.00;102898.69;10418116;28;20045;-67
2023/01/25 16:54:18;;;;;;;94.90;52.60;;;;;;;1.03;100.00;102888.38;10417019;28;20033;-67
2023/01/25 16:59:19;;;;;;;85.55;46.28;;;;;;;0.87;100.00;102883.03;10416803;28;20029;-67
2023/01/25 17:04:19;;;;;;;91.63;52.78;;;;;;;0.84;100.00;102864.53;10401248;28;20415;-67
2023/01/25 17:09:20;;;;;;;92.38;51.55;;;;;;;0.93;100.00;102852.50;10418813;28;20049;-67
2023/01/25 17:14:20;;;;;;;82.07;49.65;;;;;;;1.01;100.00;102834.22;10398601;28;20096;-69
2023/01/25 17:19:21;;;;;;;92.70;51.92;;;;;;;1.02;100.00;102833.31;10415580;28;20068;-67
2023/01/25 17:24:21;;;;;;;101.13;54.90;;;;;;;0.90;100.00;102823.31;10417194;28;20033;-67
2023/01/25 17:29:22;;;;;;;86.93;49.10;;;;;;;0.79;100.00;102836.41;10398042;28;20390;-67
2023/01/25 17:34:22;;;;;;;96.20;51.85;;;;;;;0.82;100.00;102841.56;10416936;28;20458;-67
2023/01/25 17:39:23;;;;;;;103.28;52.90;;;;;;;0.83;100.00;102830.81;10432277;28;20033;-67
2023/01/25 17:44:24;;;;;;;112.25;58.15;;;;;;;0.76;100.00;102821.41;10417358;28;20048;-69
2023/01/25 17:49:25;;;;;;;139.65;61.33;;;;;;;0.71;100.00;102814.66;10417712;28;20516;-67
2023/01/25 17:54:26;;;;;;;102.35;56.05;;;;;;;0.80;100.00;102793.66;10415971;28;20068;-67
2023/01/25 17:59:27;;;;;;;124.50;62.17;;;;;;;0.76;100.00;102797.41;10415570;28;20041;-67
2023/01/25 18:04:27;;;;;;;115.22;58.47;;;;;;;0.81;100.00;102792.69;10415361;28;20041;-67
2023/01/25 18:09:30;;;;;;;124.47;60.88;;;;;;;0.76;100.00;102794.75;10415271;28;20083;-67
2023/01/25 18:14:30;;;;;;;115.93;60.90;;;;;;;0.72;100.00;102787.88;10415233;28;20386;-67
2023/01/25 18:19:31;;;;;;;132.50;61.95;;;;;;;0.70;100.00;102784.44;10414331;28;20041;-67
2023/01/25 18:24:33;;;;;;;124.70;58.95;;;;;;;0.76;100.00;102788.56;10414888;28;20596;-67
2023/01/25 18:29:45;;;;;;;105.18;51.55;;;;;;;0.69;100.00;102780.91;10414514;28;20477;-67
2023/01/25 18:34:47;;;;;;;117.30;57.85;;;;;;;0.77;100.00;102764.50;10414538;28;20455;-67
2023/01/25 18:39:48;;;;;;;117.30;57.88;;;;;;;0.66;100.00;102759.75;10417604;28;20112;-67
2023/01/25 18:44:48;;;;;;;108.13;55.50;;;;;;;0.63;100.00;102751.94;10405191;28;20117;-67
2023/01/25 18:49:50;;;;;;;127.65;61.05;;;;;;;0.68;100.00;102757.03;10405604;28;20533;-67
2023/01/25 18:54:50;;;;;;;125.78;57.13;;;;;;;0.66;100.00;102741.09;10423136;28;20476;-67
2023/01/25 18:59:50;;;;;;;131.15;57.25;;;;;;;0.66;100.00;102735.75;10422639;28;20061;-67
2023/01/25 19:04:51;;;;;;;98.80;49.75;;;;;;;0.56;100.00;102723.06;10422273;28;20448;-67
2023/01/25 19:09:51;;;;;;;124.03;60.78;;;;;;;0.63;100.00;102730.59;10422584;28;20087;-67
2023/01/25 19:14:52;;;;;;;130.52;58.60;;;;;;;0.56;100.00;102726.56;10422634;28;20057;-67
2023/01/25 19:19:52;;;;;;;89.55;40.03;;;;;;;0.58;100.00;102723.84;10421535;28;20056;-67
2023/01/25 19:24:52;;;;;;;131.38;64.00;;;;;;;0.53;100.00;102716.09;10421853;28;20034;-67
2023/01/25 19:29:53;;;;;;;137.32;62.50;;;;;;;0.58;100.00;102707.84;10422514;28;20084;-67
2023/01/25 19:34:53;;;;;;;147.13;64.28;;;;;;;0.66;100.00;102703.78;10421027;28;20485;-67
2023/01/25 19:39:54;;;;;;;108.78;51.85;;;;;;;0.55;100.00;102682.22;10420749;28;20038;-67
2023/01/25 19:44:54;;;;;;;141.38;58.97;;;;;;;0.50;100.00;102678.94;10420802;28;20069;-67
2023/01/25 19:49:55;;;;;;;125.65;59.38;;;;;;;0.50;100.00;102681.59;10419791;28;20535;-67
2023/01/25 19:54:56;;;;;;;137.05;64.43;;;;;;;0.58;100.00;102689.19;10420776;28;20041;-67
2023/01/25 19:59:56;;;;;;;142.95;58.30;;;;;;;0.48;100.00;102683.53;10421863;28;20041;-67
2023/01/25 20:04:57;;;;;;;154.50;63.00;;;;;;;0.40;100.00;102678.63;10420097;28;20041;-67
2023/01/25 20:09:57;;;;;;;140.73;71.38;;;;;;;0.43;100.00;102682.91;10420154;28;20037;-67
2023/01/25 20:14:57;;;;;;;131.00;61.17;;;;;;;0.47;100.00;102679.97;10450880;28;20452;-67
2023/01/25 20:19:58;;;;;;;108.35;49.28;;;;;;;0.43;100.00;102666.94;10419885;28;20120;-67
2023/01/25 20:24:58;;;;;;;157.77;68.97;;;;;;;0.51;100.00;102664.69;10419052;28;20045;-67
2023/01/25 20:29:59;;;;;;;123.10;58.58;;;;;;;0.47;100.00;102661.31;10418021;28;20394;-67
2023/01/25 20:35:02;;;;;;;118.78;55.72;;;;;;;0.55;100.00;102665.38;10419206;28;20060;-67
2023/01/25 20:40:02;;;;;;;118.60;49.92;;;;;;;0.53;100.00;102652.13;10419198;28;20535;-67
2023/01/25 20:45:03;;;;;;;130.85;54.38;;;;;;;0.55;100.00;102655.56;10418349;28;20037;-67
2023/01/25 20:50:04;;;;;;;95.03;49.28;;;;;;;0.63;100.00;102657.75;10418540;28;20108;-67
2023/01/25 20:55:05;;;;;;;109.15;53.10;;;;;;;0.72;100.00;102654.56;10418720;28;20452;-66
2023/01/25 21:00:08;;;;;;;112.72;48.60;;;;;;;0.78;100.00;102650.69;10416652;28;20076;-66
2023/01/25 21:05:08;;;;;;;94.60;47.78;;;;;;;0.76;100.00;102639.25;10418117;28;20425;-66
2023/01/25 21:10:09;;;;;;;90.47;42.90;;;;;;;0.83;100.00;102632.59;10418115;28;20034;-65
2023/01/25 21:15:10;;;;;;;95.55;46.08;;;;;;;0.76;100.00;102631.25;10419184;28;20049;-66
2023/01/25 21:20:10;;;;;;;95.50;46.70;;;;;;;0.78;100.00;102622.22;10417611;28;20094;-67
2023/01/25 21:25:11;;;;;;;98.45;48.30;;;;;;;0.88;100.00;102614.50;10416772;28;20040;-66
2023/01/25 21:30:14;;;;;;;96.10;47.92;;;;;;;0.83;100.00;102616.59;10416941;28;20473;-67
2023/01/25 21:35:14;;;;;;;98.43;47.40;;;;;;;0.76;100.00;102615.25;10416911;28;20034;-67
2023/01/25 21:40:15;;;;;;;78.15;36.10;;;;;;;0.68;100.00;102605.03;10415956;28;20037;-67
2023/01/25 21:55:56;;;;;;;68.72;37.13;;;;;;;0.62;100.00;102606.25;10415713;28;20108;-68
2023/01/25 22:00:59;;;;;;;51.13;31.48;;;;;;;0.57;100.00;102600.31;10414801;28;20033;-69
2023/01/25 22:06:00;;;;;;;60.42;29.33;;;;;;;0.62;100.00;102597.41;10415423;28;20041;-69
2023/01/25 22:11:03;;;;;;;4.03;3.75;;;;;;;0.64;100.00;102601.72;10415500;28;20037;-70
2023/01/25 22:16:04;;;;;;;4.68;2.55;;;;;;;0.68;100.00;102594.38;10414391;28;20056;-70
2023/01/25 22:21:18;;;;;;;0.63;0.63;;;;;;;0.68;100.00;102594.38;10414611;28;20037;-69
2023/01/25 22:26:20;;;;;;;1.65;1.65;;;;;;;0.62;100.00;102594.75;10414114;28;20389;-69
2023/01/25 22:31:24;;;;;;;1.98;1.98;;;;;;;0.65;100.00;102591.91;10414829;28;20037;-69
2023/01/25 22:36:26;;;;;;;0.73;0.73;;;;;;;0.64;100.00;102590.19;10415247;28;20030;-69
2023/01/25 22:41:28;;;;;;;0.80;0.80;;;;;;;0.65;100.00;102592.75;10413585;28;20057;-69
2023/01/25 22:46:29;;;;;;;2.53;2.45;;;;;;;0.62;100.00;102590.25;10414737;28;20076;-69
2023/01/25 22:51:29;;;;;;;6.72;6.28;;;;;;;0.62;100.00;102589.41;10414890;28;20072;-69